createdAt,value
2018-03-04T00:04:11.307Z,58.00
2018-03-04T00:10:15.926Z,56.27
2018-03-04T00:16:20.931Z,61.53
2018-03-04T00:22:41.489Z,62.93
2018-03-04T00:28:45.976Z,58.37
2018-03-04T00:34:50.715Z,71.43
2018-03-04T00:40:55.382Z,61.73
2018-03-04T00:46:59.953Z,72.57
2018-03-04T00:53:05.341Z,63.90
2018-03-04T00:59:09.832Z,68.40
2018-03-04T01:05:15.209Z,67.53
2018-03-04T01:11:19.891Z,63.97
2018-03-04T01:17:24.581Z,71.70
2018-03-04T01:23:29.980Z,74.47
2018-03-04T01:29:34.540Z,63.57
2018-03-04T01:35:39.091Z,68.87
2018-03-04T01:41:43.652Z,84.13
2018-03-04T01:47:48.253Z,79.23
2018-03-04T01:53:54.333Z,66.23
2018-03-04T01:59:59.066Z,82.63
2018-03-04T02:06:03.871Z,67.93
2018-03-04T02:12:08.455Z,82.27
2018-03-04T02:18:13.810Z,83.03
2018-03-04T02:24:18.646Z,77.40
2018-03-04T02:30:23.790Z,70.40
2018-03-04T02:36:28.421Z,79.67
2018-03-04T02:42:33.747Z,81.07
2018-03-04T02:48:39.505Z,81.07
2018-03-04T02:54:44.865Z,83.53
2018-03-04T03:00:49.656Z,79.70
2018-03-04T03:06:54.367Z,77.97
2018-03-04T03:12:59.076Z,93.57
2018-03-04T03:19:03.817Z,87.53
2018-03-04T03:25:09.897Z,81.47
2018-03-04T03:31:14.467Z,72.27
2018-03-04T03:37:19.910Z,88.27
2018-03-04T03:43:24.594Z,83.47
2018-03-04T03:49:29.124Z,92.10
2018-03-04T03:55:34.422Z,97.73
2018-03-04T04:01:39.888Z,93.00
2018-03-04T04:07:44.582Z,101.13
2018-03-04T04:13:49.339Z,92.17
2018-03-04T04:19:54.022Z,84.57
2018-03-04T04:25:58.602Z,83.80
2018-03-04T04:32:03.171Z,94.83
2018-03-04T04:38:07.822Z,74.97
2018-03-04T04:44:12.418Z,85.50
2018-03-04T04:50:16.909Z,78.53
2018-03-04T04:56:22.445Z,78.23
2018-03-04T05:02:26.977Z,81.63
2018-03-04T05:08:31.557Z,75.50
2018-03-04T05:14:36.046Z,80.30
2018-03-04T05:20:40.564Z,84.53
2018-03-04T05:26:45.879Z,89.57
2018-03-04T05:32:51.553Z,83.10
2018-03-04T05:38:57.971Z,93.10
2018-03-04T05:45:02.654Z,87.43
2018-03-04T05:51:07.933Z,89.90
2018-03-04T05:57:12.488Z,86.07
2018-03-04T06:03:17.264Z,91.63
2018-03-04T06:09:22.052Z,83.87
2018-03-04T06:15:26.535Z,81.70
2018-03-04T06:21:31.945Z,88.47
2018-03-04T06:27:36.770Z,91.13
2018-03-04T06:33:41.490Z,94.07
2018-03-04T06:39:45.987Z,91.43
2018-03-04T06:45:51.739Z,86.90
2018-03-04T06:51:56.443Z,86.47
2018-03-04T06:58:01.926Z,91.60
2018-03-04T07:04:06.590Z,92.70
2018-03-04T07:10:11.147Z,92.90
2018-03-04T07:16:15.695Z,87.80
2018-03-04T07:22:21.027Z,93.97
2018-03-04T07:28:25.837Z,89.43
2018-03-04T07:34:30.515Z,88.30
2018-03-04T07:40:35.144Z,91.37
2018-03-04T07:46:39.782Z,85.93
2018-03-04T07:52:44.400Z,93.47
2018-03-04T07:58:49.089Z,89.60
2018-03-04T08:04:54.234Z,95.27
2018-03-04T08:10:58.768Z,90.33
2018-03-04T08:17:03.253Z,80.00
2018-03-04T08:23:07.760Z,90.03
2018-03-04T08:29:12.303Z,88.10
2018-03-04T08:35:16.896Z,93.43
2018-03-04T08:41:23.202Z,83.27
2018-03-04T08:47:28.152Z,88.90
2018-03-04T08:53:32.641Z,99.43
2018-03-04T08:59:37.893Z,88.13
2018-03-04T09:05:42.669Z,89.33
2018-03-04T09:11:47.196Z,92.20
2018-03-04T09:17:52.262Z,89.33
2018-03-04T09:23:56.937Z,85.47
2018-03-04T09:30:02.289Z,84.23
2018-03-04T09:36:06.804Z,86.23
2018-03-04T09:42:11.354Z,100.40
2018-03-04T09:48:15.927Z,85.97
2018-03-04T09:54:21.287Z,88.27
2018-03-04T10:00:25.939Z,91.97
2018-03-04T10:06:30.445Z,97.20
2018-03-04T10:12:35.269Z,97.50
2018-03-04T10:18:40.530Z,85.90
2018-03-04T10:24:45.018Z,92.33
2018-03-04T10:30:49.813Z,104.80
2018-03-04T10:36:54.374Z,95.57
2018-03-04T10:42:59.634Z,82.83
2018-03-04T10:49:04.548Z,88.83
2018-03-04T10:55:09.113Z,88.67
2018-03-04T11:01:19.526Z,86.67
2018-03-04T11:07:24.512Z,89.47
2018-03-04T11:13:29.169Z,91.70
2018-03-04T11:19:33.663Z,98.90
2018-03-04T11:25:38.150Z,92.97
2018-03-04T11:31:42.667Z,87.30
2018-03-04T11:37:47.939Z,100.27
2018-03-04T11:43:52.786Z,91.00
2018-03-04T11:49:57.439Z,97.90
2018-03-04T11:56:01.955Z,85.60
2018-03-04T12:02:06.444Z,98.67
2018-03-04T12:08:10.907Z,99.93
2018-03-04T12:14:15.397Z,93.93
2018-03-04T12:20:20.346Z,90.13
2018-03-04T12:26:25.651Z,103.30
2018-03-04T12:32:30.130Z,86.80
2018-03-04T12:38:34.599Z,81.50
2018-03-04T12:44:39.143Z,83.43
2018-03-04T12:50:43.817Z,91.47
2018-03-04T12:56:48.387Z,92.20
2018-03-04T13:02:52.944Z,84.97
2018-03-04T13:08:57.406Z,92.90
2018-03-04T13:15:02.039Z,79.83
2018-03-04T13:21:06.514Z,87.57
2018-03-04T13:27:12.003Z,87.47
2018-03-04T13:33:16.562Z,82.37
2018-03-04T13:39:21.158Z,76.30
2018-03-04T13:45:25.697Z,89.47
2018-03-04T13:51:30.212Z,78.13
2018-03-04T13:57:34.693Z,94.03
2018-03-04T14:03:39.191Z,92.80
2018-03-04T14:09:44.484Z,76.57
2018-03-04T14:15:50.344Z,71.57
2018-03-04T14:21:54.907Z,80.20
2018-03-04T14:27:59.402Z,79.20
2018-03-04T14:34:03.925Z,69.10
2018-03-04T14:40:09.283Z,71.47
2018-03-04T14:46:13.842Z,64.80
2018-03-04T14:52:18.431Z,72.60
2018-03-04T14:58:23.222Z,67.53
2018-03-04T15:04:27.746Z,64.73
2018-03-04T15:10:33.004Z,68.10
2018-03-04T15:16:37.670Z,64.17
2018-03-04T15:22:42.211Z,57.43
2018-03-04T15:28:46.697Z,62.30
2018-03-04T15:34:52.209Z,64.47
2018-03-04T15:40:56.819Z,57.47
2018-03-04T15:47:01.297Z,64.57
2018-03-04T15:53:05.995Z,54.20
2018-03-04T15:59:10.491Z,66.43
2018-03-04T16:05:15.058Z,69.27
2018-03-04T16:11:19.652Z,64.80
2018-03-04T16:17:25.023Z,60.63
2018-03-04T16:23:30.512Z,73.13
2018-03-04T16:29:35.000Z,76.67
2018-03-04T16:35:39.492Z,71.73
2018-03-04T16:41:44.693Z,65.73
2018-03-04T16:47:49.367Z,64.50
2018-03-04T16:53:54.043Z,72.30
2018-03-04T16:59:58.523Z,71.13
2018-03-04T17:06:03.024Z,80.93
2018-03-04T17:12:07.530Z,67.33
2018-03-04T17:18:12.039Z,65.63
2018-03-04T17:24:16.546Z,75.87
2018-03-04T17:30:21.194Z,73.07
2018-03-04T17:36:25.842Z,77.97
2018-03-04T17:42:30.435Z,82.73
2018-03-04T17:48:34.952Z,80.50
2018-03-04T17:54:39.521Z,63.73
2018-03-04T18:00:44.001Z,71.37
2018-03-04T18:06:49.289Z,69.23
2018-03-04T18:12:53.988Z,66.13
2018-03-04T18:18:58.917Z,69.00
2018-03-04T18:25:03.482Z,70.47
2018-03-04T18:31:08.905Z,61.60
2018-03-04T18:37:13.517Z,64.23
2018-03-04T18:43:18.080Z,76.80
2018-03-04T18:49:22.867Z,73.97
2018-03-04T18:55:27.414Z,84.63
2018-03-04T19:01:32.655Z,78.23
2018-03-04T19:07:37.183Z,74.13
2018-03-04T19:13:42.422Z,74.10
2018-03-04T19:19:46.929Z,100.03
2018-03-04T19:25:51.770Z,87.60
2018-03-04T19:31:56.271Z,84.33
2018-03-04T19:38:00.769Z,74.77
2018-03-04T19:44:05.379Z,86.80
2018-03-04T19:50:10.849Z,85.30
2018-03-04T19:56:15.622Z,91.73
2018-03-04T20:02:20.407Z,84.87
2018-03-04T20:08:24.972Z,86.63
2018-03-04T20:14:30.295Z,90.63
2018-03-04T20:20:34.808Z,89.23
2018-03-04T20:26:40.467Z,93.07
2018-03-04T20:32:44.966Z,83.10
2018-03-04T20:38:49.429Z,83.90
2018-03-04T20:44:54.009Z,94.73
2018-03-04T20:50:58.569Z,79.23
2018-03-04T20:57:03.047Z,78.43
2018-03-04T21:03:07.578Z,86.73
2018-03-04T21:09:13.327Z,83.57
2018-03-04T21:15:17.827Z,84.17
2018-03-04T21:21:22.688Z,94.23
2018-03-04T21:27:27.189Z,92.80
2018-03-04T21:33:32.433Z,80.37
2018-03-04T21:39:36.909Z,83.37
2018-03-04T21:45:41.504Z,82.27
2018-03-04T21:51:46.015Z,89.33
2018-03-04T21:57:50.799Z,81.23
2018-03-04T22:03:55.679Z,81.17
2018-03-04T22:10:00.187Z,73.07
2018-03-04T22:16:05.446Z,74.60
2018-03-04T22:22:10.026Z,76.33
2018-03-04T22:28:14.550Z,87.07
2018-03-04T22:34:19.200Z,81.67
2018-03-04T22:40:23.819Z,76.53
2018-03-04T22:46:28.280Z,70.33
2018-03-04T22:52:32.712Z,62.57
2018-03-04T22:58:37.249Z,74.13
2018-03-04T23:04:42.692Z,79.83
2018-03-04T23:10:47.177Z,79.73
2018-03-04T23:16:51.863Z,90.13
2018-03-04T23:22:56.367Z,86.00
2018-03-04T23:29:00.792Z,83.03
2018-03-04T23:35:06.039Z,76.93
2018-03-04T23:41:10.515Z,72.17
2018-03-04T23:47:15.003Z,59.17
2018-03-04T23:53:19.810Z,70.87
2018-03-04T23:59:24.591Z,61.60
